Jackson Springs, NC (27281)

2:57 AM EDT on May 29, 2015 (GMT -0400)
Forest Lake Dr | | Change Station
CLOSE
Current Station
Personal Weather Station
Location: Foxfire Village, NC
Elevation: 476 ft
Nearby Weather Stations

Elev 476 ft 35.17 °N, 79.55 °W | Updated 2 minutes ago

Partly Cloudy
Partly Cloudy
65.9 °F
Feels Like 65.9 °F
N
0.0
Wind Variable Wind from South
Gusts 1.0 mph

Today
High -- | Low -- °F
--% Chance of Precip.
Yesterday
High -- | Low -- °F
Precip. -- in
6:06 AM 8:25 PM
Waxing Gibbous, 81% visible
Pressure 30.21 in
Visibility 10.0 miles
Clouds Scattered Clouds 4300 ft
Dew Point 64 °F
Humidity 92%
Rainfall 0.00 in
Snow Depth Not available.
UV 0 out of 12
Pollen 6.70 out of 12
Air Quality Not available.
Flu Activity No Activity
METAR KSOP 290635Z AUTO 19004KT 10SM SCT043 19/17 A3021 RMK AO1

More Conditions Fewer Conditions

Pressure 30.21 in
Visibility 10.0 miles
Clouds Scattered Clouds 4300 ft
Dew Point 64 °F
Humidity 92%
Rainfall 0.00 in
Snow Depth Not available.
UV 0 out of 12
Pollen 6.70 out of 12
Air Quality Not available.
Flu Activity No Activity
METAR KSOP 290635Z AUTO 19004KT 10SM SCT043 19/17 A3021 RMK AO1

More Conditions Fewer Conditions

10-Day Weather Forecast

Almanac

Astronomy

May. 29, 2015 Rise Set
Actual Time
Civil Twilight
Nautical Twilight
Astronomical Twilight
Moon
Length of Visible Light
Length of Day
Tomorrow will be .
, % of the Moon is Illuminated

Today's Extremes

State Highs State Lows

Community

WunderPhotos

Upload Photos

1,825,215 photos uploaded!

WunderBlogs® & News

Nearby

Air Quality

  Air Quality AQ Index Pollutant
Not available.

Snow Depth

Station Depth Elevation

Earthquake Activity

City Distance Mag. Time & Date
Minimum magnitude displayed is 2.5.

Coastal Water Temperatures

Place Temperature

Stations

Nearby Weather Stations

Station Location Temp. Windchill Dew Point Humidity Wind Precip. Elev Updated Type